createdAt,value
2022-12-28T06:17:30.655Z,5.29
2022-12-28T06:27:30.717Z,5.69
2022-12-28T06:37:30.621Z,5.92
2022-12-28T06:47:30.632Z,6.01
2022-12-28T06:57:30.527Z,6.14
2022-12-28T07:07:30.698Z,6.12
2022-12-28T07:17:30.722Z,6.19
2022-12-28T07:27:30.554Z,5.75
2022-12-28T07:37:30.651Z,5.84
2022-12-28T07:47:30.605Z,6.07
2022-12-28T07:57:30.832Z,6.02
2022-12-28T08:07:30.617Z,6.18
2022-12-28T08:17:30.597Z,6.24
2022-12-28T08:27:36.555Z,6.28
2022-12-28T08:37:30.696Z,6.34
2022-12-28T08:47:30.911Z,6.28
2022-12-28T08:57:30.771Z,6.45
2022-12-28T09:07:30.566Z,6.58
2022-12-28T09:17:30.800Z,6.62
2022-12-28T09:27:30.779Z,6.69
2022-12-28T09:37:30.662Z,6.78
2022-12-28T09:47:30.691Z,6.91
2022-12-28T09:57:30.689Z,7.04
2022-12-28T10:07:30.875Z,7.18
2022-12-28T10:17:30.757Z,7.26
2022-12-28T10:27:30.985Z,7.34
2022-12-28T10:37:30.875Z,7.40
2022-12-28T10:47:30.799Z,7.48
2022-12-28T10:57:31.006Z,7.54
2022-12-28T11:07:30.798Z,7.54
2022-12-28T11:17:30.914Z,7.55
2022-12-28T11:27:30.781Z,7.54
2022-12-28T11:37:30.996Z,7.57
2022-12-28T11:47:31.012Z,7.57
2022-12-28T11:57:30.972Z,7.55
2022-12-28T12:07:32.323Z,7.62
2022-12-28T12:17:30.983Z,7.71
2022-12-28T12:27:30.914Z,7.74
2022-12-28T12:37:31.012Z,7.70
2022-12-28T12:47:30.943Z,7.61
2022-12-28T12:57:30.959Z,7.51
2022-12-28T13:07:31.033Z,7.51
2022-12-28T13:17:31.027Z,7.42
2022-12-28T13:27:30.981Z,7.47
2022-12-28T13:37:31.031Z,7.66
2022-12-28T13:47:31.076Z,7.78
2022-12-28T13:57:48.226Z,7.84
2022-12-28T14:07:31.099Z,7.96
2022-12-28T14:17:30.967Z,8.02
2022-12-28T14:27:31.155Z,8.11
2022-12-28T14:37:31.004Z,8.18
2022-12-28T14:47:31.119Z,8.23
2022-12-28T14:57:31.303Z,8.30
2022-12-28T15:07:31.075Z,8.32
2022-12-28T15:17:33.691Z,8.38
2022-12-28T15:27:31.122Z,8.41
2022-12-28T15:37:31.123Z,8.42
2022-12-28T15:47:31.106Z,8.43
2022-12-28T15:57:31.274Z,8.26
2022-12-28T16:07:31.200Z,8.20
2022-12-28T16:17:31.267Z,8.13
2022-12-28T16:27:31.128Z,8.03
2022-12-28T16:37:31.219Z,8.02
2022-12-28T16:47:31.226Z,7.99
2022-12-28T16:57:31.095Z,7.88
2022-12-28T17:07:31.211Z,7.94
2022-12-28T17:17:31.288Z,7.94
2022-12-28T17:27:31.115Z,8.10
2022-12-28T17:37:31.208Z,8.17
2022-12-28T17:47:31.094Z,8.29
2022-12-28T17:57:36.835Z,8.32
2022-12-28T18:07:31.282Z,8.34
2022-12-28T18:17:31.149Z,8.10
2022-12-28T18:27:31.222Z,8.12
2022-12-28T18:37:31.286Z,7.98
2022-12-28T18:47:31.354Z,7.83
2022-12-28T18:57:31.385Z,7.95
2022-12-28T19:07:31.389Z,7.97
2022-12-28T19:17:31.633Z,7.93
